^^
Saratoga-Weather Station Historical Data
Daily Summary for January 7, 2021 Units:  Both    English   Metric
Daily Weekly Monthly Yearly Custom
  High: Low: Average:
Temperature: 71.1 °F /  21.7 °C 60.4 °F /  15.8 °C 65.5 °F /  18.6 °C
Dew Point: 59.9 °F /  15.5 °C 55.2 °F /  12.9 °C 57.9 °F /  14.4 °C
Humidity: 86% 63% 77%
Wind Speed: 9mph /  14.5km/h - 1.4mph /  2.2km/h
Wind Gust: 10mph /  16.1km/h - -
Wind- - South
Pressure: 30.2 in /  1021.7 hPa 30.1 in /  1019.6 hPa -
Precipitation: 0 in /  0.0 mm    
Historical Graphs
 
 
Tabular Data for January 7, 2021
Time Temperature Dew Point Pressure Wind Wind Speed Wind Gust Humidity Rainfall Rate (Hourly) solar
00:02 61.7 °F /  16.5 °C 56.1 °F /  13.4 °C 30.2in /  1021.7hPa Calm   3mph /  4.8km/h 82% 0in /  0.0mm 0 W/m2
00:07 61.9 °F /  16.6 °C 55.9 °F /  13.3 °C 30.2in /  1021.7hPa Calm   1mph /  1.6km/h 81% 0in /  0.0mm 0 W/m2
00:12 61.9 °F /  16.6 °C 55.9 °F /  13.3 °C 30.2in /  1021.7hPa NE 0.9mph /  1.4km/h 1mph /  1.6km/h 81% 0in /  0.0mm 0 W/m2
00:17 61.9 °F /  16.6 °C 55.9 °F /  13.3 °C 30.2in /  1021.7hPa NE 2mph /  3.2km/h 2mph /  3.2km/h 81% 0in /  0.0mm 0 W/m2
00:22 61.9 °F /  16.6 °C 55.6 °F /  13.1 °C 30.2in /  1021.7hPa NNE 0.9mph /  1.4km/h 2mph /  3.2km/h 80% 0in /  0.0mm 0 W/m2
00:27 62.1 °F /  16.7 °C 55.8 °F /  13.2 °C 30.2in /  1021.7hPa Calm   2mph /  3.2km/h 80% 0in /  0.0mm 0 W/m2
00:32 62.1 °F /  16.7 °C 55.8 °F /  13.2 °C 30.2in /  1021.7hPa Calm   1mph /  1.6km/h 80% 0in /  0.0mm 0 W/m2
00:37 62.1 °F /  16.7 °C 55.8 °F /  13.2 °C 30.2in /  1021.7hPa Calm   1mph /  1.6km/h 80% 0in /  0.0mm 0 W/m2
00:42 62.1 °F /  16.7 °C 55.8 °F /  13.2 °C 30.2in /  1021.7hPa Calm     80% 0in /  0.0mm 0 W/m2
00:47 62.1 °F /  16.7 °C 55.8 °F /  13.2 °C 30.2in /  1021.7hPa Calm   1mph /  1.6km/h 80% 0in /  0.0mm 0 W/m2
00:52 62.1 °F /  16.7 °C 55.4 °F /  13 °C 30.2in /  1021.7hPa NE 0.9mph /  1.4km/h 2mph /  3.2km/h 79% 0in /  0.0mm 0 W/m2
00:57 62.1 °F /  16.7 °C 55.4 °F /  13 °C 30.2in /  1021.7hPa Calm   3mph /  4.8km/h 79% 0in /  0.0mm 0 W/m2
01:02 61.9 °F /  16.6 °C 55.2 °F /  12.9 °C 30.2in /  1021.7hPa ESE 0.9mph /  1.4km/h 2mph /  3.2km/h 79% 0in /  0.0mm 0 W/m2
01:07 61.9 °F /  16.6 °C 55.6 °F /  13.1 °C 30.2in /  1021.7hPa NE 0.9mph /  1.4km/h 3mph /  4.8km/h 80% 0in /  0.0mm 0 W/m2
01:12 61.9 °F /  16.6 °C 55.6 °F /  13.1 °C 30.2in /  1021.7hPa ENE 0.9mph /  1.4km/h 3mph /  4.8km/h 80% 0in /  0.0mm 0 W/m2
01:17 61.9 °F /  16.6 °C 55.6 °F /  13.1 °C 30.2in /  1021.3hPa WNW 2mph /  3.2km/h 5mph /  8km/h 80% 0in /  0.0mm 0 W/m2
01:22 61.7 °F /  16.5 °C 55.4 °F /  13 °C 30.2in /  1021.3hPa Calm   2mph /  3.2km/h 80% 0in /  0.0mm 0 W/m2
01:27 61.7 °F /  16.5 °C 55.4 °F /  13 °C 30.2in /  1021.3hPa WNW 0.9mph /  1.4km/h 5mph /  8km/h 80% 0in /  0.0mm 0 W/m2
01:32 61.5 °F /  16.4 °C 55.6 °F /  13.1 °C 30.2in /  1021.3hPa West 0.9mph /  1.4km/h 2mph /  3.2km/h 81% 0in /  0.0mm 0 W/m2
01:37 61.3 °F /  16.3 °C 55.4 °F /  13 °C 30.2in /  1021.3hPa Calm   3mph /  4.8km/h 81% 0in /  0.0mm 0 W/m2
01:42 61.2 °F /  16.2 °C 55.2 °F /  12.9 °C 30.2in /  1021.3hPa Calm   1mph /  1.6km/h 81% 0in /  0.0mm 0 W/m2
01:47 61.2 °F /  16.2 °C 55.6 °F /  13.1 °C 30.2in /  1021.3hPa West 0.9mph /  1.4km/h 3mph /  4.8km/h 82% 0in /  0.0mm 0 W/m2
01:52 61.2 °F /  16.2 °C 55.6 °F /  13.1 °C 30.2in /  1021.3hPa Calm   1mph /  1.6km/h 82% 0in /  0.0mm 0 W/m2
01:57 61.2 °F /  16.2 °C 55.6 °F /  13.1 °C 30.2in /  1021.3hPa West 0.9mph /  1.4km/h 2mph /  3.2km/h 82% 0in /  0.0mm 0 W/m2
02:02 61 °F /  16.1 °C 55.4 °F /  13 °C 30.2in /  1021.3hPa Calm   2mph /  3.2km/h 82% 0in /  0.0mm 0 W/m2
02:07 61 °F /  16.1 °C 55.4 °F /  13 °C 30.2in /  1021.3hPa West 0.9mph /  1.4km/h 2mph /  3.2km/h 82% 0in /  0.0mm 0 W/m2
02:12 60.8 °F /  16 °C 55.6 °F /  13.1 °C 30.2in /  1021.3hPa West 0.9mph /  1.4km/h 2mph /  3.2km/h 83% 0in /  0.0mm 0 W/m2
02:17 60.6 °F /  15.9 °C 55.4 °F /  13 °C 30.2in /  1021.3hPa Calm   1mph /  1.6km/h 83% 0in /  0.0mm 0 W/m2
02:22 60.6 °F /  15.9 °C 55.4 °F /  13 °C 30.2in /  1021.3hPa West 0.9mph /  1.4km/h 2mph /  3.2km/h 83% 0in /  0.0mm 0 W/m2
02:27 60.6 °F /  15.9 °C 55.4 °F /  13 °C 30.2in /  1021.3hPa SSW 0.9mph /  1.4km/h 2mph /  3.2km/h 83% 0in /  0.0mm 0 W/m2
02:32 60.6 °F /  15.9 °C 55.4 °F /  13 °C 30.2in /  1021.3hPa Calm   1mph /  1.6km/h 83% 0in /  0.0mm 0 W/m2
02:37 60.6 °F /  15.9 °C 55.4 °F /  13 °C 30.2in /  1021.3hPa Calm     83% 0in /  0.0mm 0 W/m2
02:42 60.4 °F /  15.8 °C 55.6 °F /  13.1 °C 30.2in /  1021.3hPa SSW 2mph /  3.2km/h 2mph /  3.2km/h 84% 0in /  0.0mm 0 W/m2
02:47 60.4 °F /  15.8 °C 55.6 °F /  13.1 °C 30.2in /  1021.3hPa WSW 0.9mph /  1.4km/h 1mph /  1.6km/h 84% 0in /  0.0mm 0 W/m2
02:52 60.6 °F /  15.9 °C 55.8 °F /  13.2 °C 30.2in /  1021.3hPa WSW 2mph /  3.2km/h 2mph /  3.2km/h 84% 0in /  0.0mm 0 W/m2
02:57 60.6 °F /  15.9 °C 55.8 °F /  13.2 °C 30.2in /  1021.3hPa Calm     84% 0in /  0.0mm 0 W/m2
03:02 60.4 °F /  15.8 °C 55.6 °F /  13.1 °C 30.2in /  1021.3hPa WSW 0.9mph /  1.4km/h 2mph /  3.2km/h 84% 0in /  0.0mm 0 W/m2
03:07 60.4 °F /  15.8 °C 55.6 °F /  13.1 °C 30.2in /  1021.3hPa Calm   1mph /  1.6km/h 84% 0in /  0.0mm 0 W/m2
03:12 60.4 °F /  15.8 °C 55.6 °F /  13.1 °C 30.2in /  1021.3hPa NW 2mph /  3.2km/h 3mph /  4.8km/h 84% 0in /  0.0mm 0 W/m2
03:17 60.6 °F /  15.9 °C 55.8 °F /  13.2 °C 30.2in /  1021.3hPa Calm   2mph /  3.2km/h 84% 0in /  0.0mm 0 W/m2
03:22 60.8 °F /  16 °C 55.9 °F /  13.3 °C 30.2in /  1021.3hPa Calm     84% 0in /  0.0mm 0 W/m2
03:27 60.8 °F /  16 °C 56.3 °F /  13.5 °C 30.2in /  1021.3hPa NNW 2mph /  3.2km/h 2mph /  3.2km/h 85% 0in /  0.0mm 0 W/m2
03:32 60.8 °F /  16 °C 55.9 °F /  13.3 °C 30.2in /  1021.3hPa Calm   1mph /  1.6km/h 84% 0in /  0.0mm 0 W/m2
03:37 60.8 °F /  16 °C 55.9 °F /  13.3 °C 30.2in /  1021.0hPa NW 0.9mph /  1.4km/h 4mph /  6.4km/h 84% 0in /  0.0mm 0 W/m2
03:42 61 °F /  16.1 °C 56.1 °F /  13.4 °C 30.2in /  1021.0hPa Calm   2mph /  3.2km/h 84% 0in /  0.0mm 0 W/m2
03:47 61 °F /  16.1 °C 56.1 °F /  13.4 °C 30.2in /  1021.0hPa WSW 0.9mph /  1.4km/h 4mph /  6.4km/h 84% 0in /  0.0mm 0 W/m2
03:52 61 °F /  16.1 °C 56.1 °F /  13.4 °C 30.2in /  1021.0hPa West 0.9mph /  1.4km/h 2mph /  3.2km/h 84% 0in /  0.0mm 0 W/m2
03:57 61 °F /  16.1 °C 56.1 °F /  13.4 °C 30.2in /  1021.0hPa NW 0.9mph /  1.4km/h 2mph /  3.2km/h 84% 0in /  0.0mm 0 W/m2
04:02 61 °F /  16.1 °C 56.5 °F /  13.6 °C 30.2in /  1021.0hPa WNW 2mph /  3.2km/h 3mph /  4.8km/h 85% 0in /  0.0mm 0 W/m2
04:07 61 °F /  16.1 °C 56.5 °F /  13.6 °C 30.2in /  1021.0hPa WNW 0.9mph /  1.4km/h 3mph /  4.8km/h 85% 0in /  0.0mm 0 W/m2
04:12 61 °F /  16.1 °C 56.5 °F /  13.6 °C 30.2in /  1021.0hPa Calm   1mph /  1.6km/h 85% 0in /  0.0mm 0 W/m2
04:17 61 °F /  16.1 °C 56.5 °F /  13.6 °C 30.2in /  1021.0hPa West 2mph /  3.2km/h 4mph /  6.4km/h 85% 0in /  0.0mm 0 W/m2
04:22 61 °F /  16.1 °C 56.1 °F /  13.4 °C 30.2in /  1021.0hPa WNW 4.9mph /  7.9km/h 7mph /  11.3km/h 84% 0in /  0.0mm 0 W/m2
04:27 61.2 °F /  16.2 °C 56.7 °F /  13.7 °C 30.2in /  1021.0hPa WNW 2mph /  3.2km/h 3mph /  4.8km/h 85% 0in /  0.0mm 0 W/m2
04:32 61.2 °F /  16.2 °C 56.7 °F /  13.7 °C 30.2in /  1021.0hPa West 2mph /  3.2km/h 7mph /  11.3km/h 85% 0in /  0.0mm 0 W/m2
04:37 61.2 °F /  16.2 °C 56.3 °F /  13.5 °C 30.2in /  1021.0hPa West 2mph /  3.2km/h 4mph /  6.4km/h 84% 0in /  0.0mm 0 W/m2
04:42 61.2 °F /  16.2 °C 56.3 °F /  13.5 °C 30.2in /  1021.0hPa WNW 0.9mph /  1.4km/h 4mph /  6.4km/h 84% 0in /  0.0mm 0 W/m2
04:47 61.2 °F /  16.2 °C 56.7 °F /  13.7 °C 30.2in /  1021.0hPa West 2mph /  3.2km/h 3mph /  4.8km/h 85% 0in /  0.0mm 0 W/m2
04:52 61.2 °F /  16.2 °C 56.7 °F /  13.7 °C 30.2in /  1021.0hPa NW 0.9mph /  1.4km/h 4mph /  6.4km/h 85% 0in /  0.0mm 0 W/m2
04:57 61.2 °F /  16.2 °C 56.7 °F /  13.7 °C 30.2in /  1021.0hPa NW 0.9mph /  1.4km/h 3mph /  4.8km/h 85% 0in /  0.0mm 0 W/m2
05:02 61.2 °F /  16.2 °C 56.7 °F /  13.7 °C 30.2in /  1021.0hPa NW 2mph /  3.2km/h 3mph /  4.8km/h 85% 0in /  0.0mm 0 W/m2
05:08 61 °F /  16.1 °C 56.5 °F /  13.6 °C 30.2in /  1021.0hPa WNW 2mph /  3.2km/h 8mph /  12.9km/h 85% 0in /  0.0mm 0 W/m2
05:13 61 °F /  16.1 °C 56.5 °F /  13.6 °C 30.2in /  1021.0hPa WNW 0.9mph /  1.4km/h 6mph /  9.7km/h 85% 0in /  0.0mm 0 W/m2
05:18 61 °F /  16.1 °C 56.8 °F /  13.8 °C 30.2in /  1021.0hPa WNW 2mph /  3.2km/h 4mph /  6.4km/h 86% 0in /  0.0mm 0 W/m2
05:23 61 °F /  16.1 °C 56.8 °F /  13.8 °C 30.2in /  1021.0hPa NNW 2mph /  3.2km/h 5mph /  8km/h 86% 0in /  0.0mm 0 W/m2
05:28 61 °F /  16.1 °C 56.8 °F /  13.8 °C 30.2in /  1021.0hPa ENE 2mph /  3.2km/h 2mph /  3.2km/h 86% 0in /  0.0mm 0 W/m2
05:33 61 °F /  16.1 °C 56.8 °F /  13.8 °C 30.2in /  1021.0hPa Calm   2mph /  3.2km/h 86% 0in /  0.0mm 0 W/m2
05:38 61 °F /  16.1 °C 56.8 °F /  13.8 °C 30.2in /  1021.0hPa ENE 2mph /  3.2km/h 2mph /  3.2km/h 86% 0in /  0.0mm 0 W/m2
05:43 61 °F /  16.1 °C 56.8 °F /  13.8 °C 30.2in /  1021.0hPa Calm     86% 0in /  0.0mm 0 W/m2
05:48 61 °F /  16.1 °C 56.8 °F /  13.8 °C 30.2in /  1021.0hPa NE 0.9mph /  1.4km/h 3mph /  4.8km/h 86% 0in /  0.0mm 5 W/m2
05:53 61 °F /  16.1 °C 56.8 °F /  13.8 °C 30.2in /  1021.0hPa Calm   5mph /  8km/h 86% 0in /  0.0mm 5 W/m2
05:58 61 °F /  16.1 °C 56.8 °F /  13.8 °C 30.2in /  1021.0hPa North 2mph /  3.2km/h 3mph /  4.8km/h 86% 0in /  0.0mm 7 W/m2
06:03 61 °F /  16.1 °C 56.8 °F /  13.8 °C 30.2in /  1021.0hPa NE 2mph /  3.2km/h 5mph /  8km/h 86% 0in /  0.0mm 7 W/m2
06:08 61 °F /  16.1 °C 56.8 °F /  13.8 °C 30.2in /  1021.0hPa NNW 0.9mph /  1.4km/h 4mph /  6.4km/h 86% 0in /  0.0mm 9 W/m2
06:13 61 °F /  16.1 °C 56.8 °F /  13.8 °C 30.2in /  1021.0hPa WNW 2.9mph /  4.7km/h 7mph /  11.3km/h 86% 0in /  0.0mm 11 W/m2
06:18 61 °F /  16.1 °C 56.8 °F /  13.8 °C 30.2in /  1021.0hPa West 4mph /  6.4km/h 4mph /  6.4km/h 86% 0in /  0.0mm 14 W/m2
06:23 61 °F /  16.1 °C 56.8 °F /  13.8 °C 30.2in /  1021.0hPa Calm   5mph /  8km/h 86% 0in /  0.0mm 16 W/m2
06:28 61 °F /  16.1 °C 56.8 °F /  13.8 °C 30.2in /  1021.0hPa WNW 2.9mph /  4.7km/h 3mph /  4.8km/h 86% 0in /  0.0mm 19 W/m2
06:33 61.2 °F /  16.2 °C 57 °F /  13.9 °C 30.1in /  1020.7hPa North 0.9mph /  1.4km/h 3mph /  4.8km/h 86% 0in /  0.0mm 23 W/m2
06:38 61.2 °F /  16.2 °C 57 °F /  13.9 °C 30.1in /  1020.7hPa NNW 0.9mph /  1.4km/h 2mph /  3.2km/h 86% 0in /  0.0mm 28 W/m2
06:43 61.2 °F /  16.2 °C 57 °F /  13.9 °C 30.2in /  1021.0hPa Calm   3mph /  4.8km/h 86% 0in /  0.0mm 28 W/m2
06:48 61.2 °F /  16.2 °C 56.7 °F /  13.7 °C 30.2in /  1021.0hPa Calm     85% 0in /  0.0mm 30 W/m2
06:53 61.2 °F /  16.2 °C 56.7 °F /  13.7 °C 30.1in /  1020.7hPa Calm     85% 0in /  0.0mm 33 W/m2
06:58 61.2 °F /  16.2 °C 57 °F /  13.9 °C 30.2in /  1021.0hPa Calm   3mph /  4.8km/h 86% 0in /  0.0mm 33 W/m2
07:03 61.2 °F /  16.2 °C 56.7 °F /  13.7 °C 30.2in /  1021.0hPa Calm   1mph /  1.6km/h 85% 0in /  0.0mm 30 W/m2
07:08 61.2 °F /  16.2 °C 56.7 °F /  13.7 °C 30.2in /  1021.0hPa ENE 0.9mph /  1.4km/h 1mph /  1.6km/h 85% 0in /  0.0mm 32 W/m2
07:13 61.2 °F /  16.2 °C 57 °F /  13.9 °C 30.2in /  1021.0hPa ENE 0.9mph /  1.4km/h 1mph /  1.6km/h 86% 0in /  0.0mm 39 W/m2
07:18 61.2 °F /  16.2 °C 56.7 °F /  13.7 °C 30.2in /  1021.0hPa Calm   2mph /  3.2km/h 85% 0in /  0.0mm 44 W/m2
07:23 61.2 °F /  16.2 °C 56.7 °F /  13.7 °C 30.2in /  1021.0hPa Calm   3mph /  4.8km/h 85% 0in /  0.0mm 51 W/m2
07:28 61.3 °F /  16.3 °C 56.8 °F /  13.8 °C 30.2in /  1021.0hPa ENE 2.9mph /  4.7km/h 3mph /  4.8km/h 85% 0in /  0.0mm 60 W/m2
07:33 61.3 °F /  16.3 °C 56.8 °F /  13.8 °C 30.2in /  1021.0hPa East 0.9mph /  1.4km/h 2mph /  3.2km/h 85% 0in /  0.0mm 67 W/m2
07:38 61.3 °F /  16.3 °C 56.8 °F /  13.8 °C 30.2in /  1021.0hPa East 2.9mph /  4.7km/h 3mph /  4.8km/h 85% 0in /  0.0mm 74 W/m2
07:43 61.5 °F /  16.4 °C 57 °F /  13.9 °C 30.2in /  1021.0hPa Calm   3mph /  4.8km/h 85% 0in /  0.0mm 84 W/m2
07:48 61.7 °F /  16.5 °C 57.2 °F /  14 °C 30.2in /  1021.0hPa SE 0.9mph /  1.4km/h 2mph /  3.2km/h 85% 0in /  0.0mm 88 W/m2
07:53 61.9 °F /  16.6 °C 57.4 °F /  14.1 °C 30.2in /  1021.0hPa North 2mph /  3.2km/h 4mph /  6.4km/h 85% 0in /  0.0mm 90 W/m2
07:58 61.9 °F /  16.6 °C 57.4 °F /  14.1 °C 30.2in /  1021.0hPa Calm   2mph /  3.2km/h 85% 0in /  0.0mm 107 W/m2
08:03 62.1 °F /  16.7 °C 57.6 °F /  14.2 °C 30.2in /  1021.0hPa East 2mph /  3.2km/h 3mph /  4.8km/h 85% 0in /  0.0mm 98 W/m2
08:08 62.2 °F /  16.8 °C 57.7 °F /  14.3 °C 30.2in /  1021.0hPa Calm   1mph /  1.6km/h 85% 0in /  0.0mm 95 W/m2
08:13 62.2 °F /  16.8 °C 57.7 °F /  14.3 °C 30.2in /  1021.0hPa NNE 0.9mph /  1.4km/h 2mph /  3.2km/h 85% 0in /  0.0mm 97 W/m2
08:18 62.2 °F /  16.8 °C 57.4 °F /  14.1 °C 30.2in /  1021.0hPa Calm   2mph /  3.2km/h 84% 0in /  0.0mm 97 W/m2
08:23 62.4 °F /  16.9 °C 57.6 °F /  14.2 °C 30.2in /  1021.0hPa ESE 0.9mph /  1.4km/h 3mph /  4.8km/h 84% 0in /  0.0mm 90 W/m2
08:28 62.4 °F /  16.9 °C 57.6 °F /  14.2 °C 30.2in /  1021.0hPa Calm   2mph /  3.2km/h 84% 0in /  0.0mm 76 W/m2
08:33 62.4 °F /  16.9 °C 57.6 °F /  14.2 °C 30.2in /  1021.0hPa Calm   3mph /  4.8km/h 84% 0in /  0.0mm 77 W/m2
08:38 62.4 °F /  16.9 °C 57.6 °F /  14.2 °C 30.2in /  1021.0hPa East 2mph /  3.2km/h 4mph /  6.4km/h 84% 0in /  0.0mm 83 W/m2
08:43 62.2 °F /  16.8 °C 57.4 °F /  14.1 °C 30.2in /  1021.0hPa ENE 0.9mph /  1.4km/h 2mph /  3.2km/h 84% 0in /  0.0mm 83 W/m2
08:48 62.2 °F /  16.8 °C 57.4 °F /  14.1 °C 30.2in /  1021.0hPa Calm   3mph /  4.8km/h 84% 0in /  0.0mm 86 W/m2
08:53 62.2 °F /  16.8 °C 57.4 °F /  14.1 °C 30.2in /  1021.0hPa Calm   2mph /  3.2km/h 84% 0in /  0.0mm 90 W/m2
08:58 62.2 °F /  16.8 °C 57.7 °F /  14.3 °C 30.2in /  1021.0hPa East 2mph /  3.2km/h 3mph /  4.8km/h 85% 0in /  0.0mm 97 W/m2
09:03 62.2 °F /  16.8 °C 57.7 °F /  14.3 °C 30.2in /  1021.0hPa Calm   2mph /  3.2km/h 85% 0in /  0.0mm 97 W/m2
09:08 62.4 °F /  16.9 °C 57.9 °F /  14.4 °C 30.2in /  1021.3hPa East 0.9mph /  1.4km/h 2mph /  3.2km/h 85% 0in /  0.0mm 114 W/m2
09:13 62.4 °F /  16.9 °C 57.9 °F /  14.4 °C 30.2in /  1021.3hPa Calm   3mph /  4.8km/h 85% 0in /  0.0mm 121 W/m2
09:18 62.4 °F /  16.9 °C 57.6 °F /  14.2 °C 30.2in /  1021.0hPa NNW 2mph /  3.2km/h 3mph /  4.8km/h 84% 0in /  0.0mm 127 W/m2
09:23 62.6 °F /  17 °C 57.7 °F /  14.3 °C 30.2in /  1021.3hPa NW 2mph /  3.2km/h 3mph /  4.8km/h 84% 0in /  0.0mm 156 W/m2
09:28 62.8 °F /  17.1 °C 57.9 °F /  14.4 °C 30.2in /  1021.3hPa Calm   2mph /  3.2km/h 84% 0in /  0.0mm 202 W/m2
09:33 63 °F /  17.2 °C 58.5 °F /  14.7 °C 30.2in /  1021.3hPa Calm     85% 0in /  0.0mm 262 W/m2
09:38 63.1 °F /  17.3 °C 57.9 °F /  14.4 °C 30.2in /  1021.3hPa ENE 0.9mph /  1.4km/h 3mph /  4.8km/h 83% 0in /  0.0mm 246 W/m2
09:43 63.5 °F /  17.5 °C 58.3 °F /  14.6 °C 30.2in /  1021.3hPa East 4mph /  6.4km/h 6mph /  9.7km/h 83% 0in /  0.0mm 229 W/m2
09:48 63.7 °F /  17.6 °C 58.5 °F /  14.7 °C 30.2in /  1021.3hPa Calm   6mph /  9.7km/h 83% 0in /  0.0mm 239 W/m2
09:53 63.9 °F /  17.7 °C 58.3 °F /  14.6 °C 30.2in /  1021.3hPa NNE 2.9mph /  4.7km/h 3mph /  4.8km/h 82% 0in /  0.0mm 281 W/m2
09:58 64 °F /  17.8 °C 58.5 °F /  14.7 °C 30.2in /  1021.3hPa ESE 2.9mph /  4.7km/h 9mph /  14.5km/h 82% 0in /  0.0mm 297 W/m2
10:03 64.4 °F /  18 °C 58.8 °F /  14.9 °C 30.2in /  1021.3hPa NNW 2mph /  3.2km/h 5mph /  8km/h 82% 0in /  0.0mm 325 W/m2
10:08 64.6 °F /  18.1 °C 58.6 °F /  14.8 °C 30.2in /  1021.3hPa ESE 2mph /  3.2km/h 9mph /  14.5km/h 81% 0in /  0.0mm 350 W/m2
10:14 64.8 °F /  18.2 °C 58.8 °F /  14.9 °C 30.2in /  1021.3hPa East 2.9mph /  4.7km/h 4mph /  6.4km/h 81% 0in /  0.0mm 381 W/m2
10:19 65.1 °F /  18.4 °C 58.8 °F /  14.9 °C 30.2in /  1021.3hPa ESE 2.9mph /  4.7km/h 4mph /  6.4km/h 80% 0in /  0.0mm 350 W/m2
10:24 65.3 °F /  18.5 °C 59 °F /  15 °C 30.2in /  1021.3hPa ESE 4.9mph /  7.9km/h 5mph /  8km/h 80% 0in /  0.0mm 320 W/m2
10:29 65.5 °F /  18.6 °C 59.2 °F /  15.1 °C 30.2in /  1021.3hPa East 2mph /  3.2km/h 4mph /  6.4km/h 80% 0in /  0.0mm 309 W/m2
10:34 65.7 °F /  18.7 °C 59.4 °F /  15.2 °C 30.2in /  1021.3hPa ESE 0.9mph /  1.4km/h 3mph /  4.8km/h 80% 0in /  0.0mm 383 W/m2
10:39 65.8 °F /  18.8 °C 59.2 °F /  15.1 °C 30.2in /  1021.3hPa Calm   5mph /  8km/h 79% 0in /  0.0mm 360 W/m2
10:44 66 °F /  18.9 °C 59.4 °F /  15.2 °C 30.2in /  1021.3hPa ENE 2.9mph /  4.7km/h 4mph /  6.4km/h 79% 0in /  0.0mm 396 W/m2
10:49 66.2 °F /  19 °C 59.9 °F /  15.5 °C 30.2in /  1021.3hPa NW 2.9mph /  4.7km/h 5mph /  8km/h 80% 0in /  0.0mm 373 W/m2
10:54 66.4 °F /  19.1 °C 59.7 °F /  15.4 °C 30.2in /  1021.3hPa ESE 2.9mph /  4.7km/h 4mph /  6.4km/h 79% 0in /  0.0mm 371 W/m2
10:59 66.6 °F /  19.2 °C 59.5 °F /  15.3 °C 30.2in /  1021.3hPa NNW 2.9mph /  4.7km/h 6mph /  9.7km/h 78% 0in /  0.0mm 387 W/m2
11:04 66.7 °F /  19.3 °C 59.7 °F /  15.4 °C 30.2in /  1021.3hPa ENE 4mph /  6.4km/h 5mph /  8km/h 78% 0in /  0.0mm 427 W/m2
11:09 66.7 °F /  19.3 °C 59.4 °F /  15.2 °C 30.2in /  1021.3hPa East 0.9mph /  1.4km/h 7mph /  11.3km/h 77% 0in /  0.0mm 401 W/m2
11:14 66.9 °F /  19.4 °C 59.2 °F /  15.1 °C 30.2in /  1021.3hPa ENE 2mph /  3.2km/h 10mph /  16.1km/h 76% 0in /  0.0mm 338 W/m2
11:19 66.9 °F /  19.4 °C 59.2 °F /  15.1 °C 30.2in /  1021.3hPa ESE 6mph /  9.7km/h 8mph /  12.9km/h 76% 0in /  0.0mm 360 W/m2
11:24 67.1 °F /  19.5 °C 59.7 °F /  15.4 °C 30.2in /  1021.3hPa East 2mph /  3.2km/h 10mph /  16.1km/h 77% 0in /  0.0mm 448 W/m2
11:29 67.3 °F /  19.6 °C 59 °F /  15 °C 30.2in /  1021.3hPa East 2.9mph /  4.7km/h 6mph /  9.7km/h 75% 0in /  0.0mm 471 W/m2
11:34 67.1 °F /  19.5 °C 58.8 °F /  14.9 °C 30.2in /  1021.3hPa NE 2.9mph /  4.7km/h 4mph /  6.4km/h 75% 0in /  0.0mm 461 W/m2
11:39 67.5 °F /  19.7 °C 58.8 °F /  14.9 °C 30.2in /  1021.3hPa NE 2.9mph /  4.7km/h 5mph /  8km/h 74% 0in /  0.0mm 417 W/m2
11:44 67.3 °F /  19.6 °C 58.6 °F /  14.8 °C 30.2in /  1021.3hPa ENE 2.9mph /  4.7km/h 8mph /  12.9km/h 74% 0in /  0.0mm 381 W/m2
11:49 67.3 °F /  19.6 °C 59 °F /  15 °C 30.2in /  1021.3hPa East 0.9mph /  1.4km/h 5mph /  8km/h 75% 0in /  0.0mm 350 W/m2
11:54 67.5 °F /  19.7 °C 58.5 °F /  14.7 °C 30.2in /  1021.3hPa SSE 0.9mph /  1.4km/h 10mph /  16.1km/h 73% 0in /  0.0mm 371 W/m2
11:59 67.5 °F /  19.7 °C 58.5 °F /  14.7 °C 30.2in /  1021.3hPa ENE 4.9mph /  7.9km/h 5mph /  8km/h 73% 0in /  0.0mm 390 W/m2
12:04 67.6 °F /  19.8 °C 58.6 °F /  14.8 °C 30.2in /  1021.3hPa East 4mph /  6.4km/h 7mph /  11.3km/h 73% 0in /  0.0mm 371 W/m2
12:09 67.8 °F /  19.9 °C 58.8 °F /  14.9 °C 30.2in /  1021.3hPa SSE 2.9mph /  4.7km/h 7mph /  11.3km/h 73% 0in /  0.0mm 385 W/m2
12:14 67.8 °F /  19.9 °C 59.2 °F /  15.1 °C 30.2in /  1021.3hPa SW 0.9mph /  1.4km/h 4mph /  6.4km/h 74% 0in /  0.0mm 457 W/m2
12:19 68.2 °F /  20.1 °C 59.2 °F /  15.1 °C 30.2in /  1021.3hPa NE 4mph /  6.4km/h 5mph /  8km/h 73% 0in /  0.0mm 499 W/m2
12:24 68.4 °F /  20.2 °C 59 °F /  15 °C 30.2in /  1021.3hPa North 2mph /  3.2km/h 3mph /  4.8km/h 72% 0in /  0.0mm 459 W/m2
12:29 68.5 °F /  20.3 °C 59.2 °F /  15.1 °C 30.2in /  1021.0hPa Calm   5mph /  8km/h 72% 0in /  0.0mm 483 W/m2
12:34 68.5 °F /  20.3 °C 59.2 °F /  15.1 °C 30.2in /  1021.0hPa NE 2.9mph /  4.7km/h 4mph /  6.4km/h 72% 0in /  0.0mm 529 W/m2
12:39 68.7 °F /  20.4 °C 59.4 °F /  15.2 °C 30.2in /  1021.0hPa East 7mph /  11.3km/h 7mph /  11.3km/h 72% 0in /  0.0mm 506 W/m2
12:44 69.1 °F /  20.6 °C 59.4 °F /  15.2 °C 30.2in /  1021.0hPa NE 2.9mph /  4.7km/h 8mph /  12.9km/h 71% 0in /  0.0mm 591 W/m2
12:49 69.3 °F /  20.7 °C 59.5 °F /  15.3 °C 30.2in /  1021.0hPa Calm   6mph /  9.7km/h 71% 0in /  0.0mm 656 W/m2
12:54 69.6 °F /  20.9 °C 59.4 °F /  15.2 °C 30.2in /  1021.0hPa NNW 0.9mph /  1.4km/h 8mph /  12.9km/h 70% 0in /  0.0mm 659 W/m2
12:59 70.2 °F /  21.2 °C 59.5 °F /  15.3 °C 30.2in /  1021.0hPa NNW 2mph /  3.2km/h 3mph /  4.8km/h 69% 0in /  0.0mm 638 W/m2
13:04 70.2 °F /  21.2 °C 59.5 °F /  15.3 °C 30.2in /  1021.0hPa NNW 4mph /  6.4km/h 9mph /  14.5km/h 69% 0in /  0.0mm 497 W/m2
13:09 70.2 °F /  21.2 °C 59.5 °F /  15.3 °C 30.2in /  1021.0hPa WNW 2mph /  3.2km/h 6mph /  9.7km/h 69% 0in /  0.0mm 585 W/m2
13:14 70.2 °F /  21.2 °C 59.5 °F /  15.3 °C 30.2in /  1021.0hPa East 2mph /  3.2km/h 9mph /  14.5km/h 69% 0in /  0.0mm 543 W/m2
13:19 70.3 °F /  21.3 °C 59.7 °F /  15.4 °C 30.2in /  1021.0hPa NNW 2mph /  3.2km/h 6mph /  9.7km/h 69% 0in /  0.0mm 492 W/m2
13:24 70.3 °F /  21.3 °C 59.7 °F /  15.4 °C 30.2in /  1021.0hPa East 2mph /  3.2km/h 4mph /  6.4km/h 69% 0in /  0.0mm 508 W/m2
13:29 70.5 °F /  21.4 °C 59.9 °F /  15.5 °C 30.2in /  1021.0hPa NE 2mph /  3.2km/h 6mph /  9.7km/h 69% 0in /  0.0mm 459 W/m2
13:34 70.5 °F /  21.4 °C 59.4 °F /  15.2 °C 30.1in /  1020.7hPa West 8.1mph /  13km/h 9mph /  14.5km/h 68% 0in /  0.0mm 408 W/m2
13:39 70 °F /  21.1 °C 59.7 °F /  15.4 °C 30.1in /  1020.7hPa Calm   6mph /  9.7km/h 70% 0in /  0.0mm 387 W/m2
13:44 69.6 °F /  20.9 °C 59.4 °F /  15.2 °C 30.1in /  1020.7hPa WSW 2.9mph /  4.7km/h 8mph /  12.9km/h 70% 0in /  0.0mm 404 W/m2
13:49 69.6 °F /  20.9 °C 59.4 °F /  15.2 °C 30.1in /  1020.7hPa NE 0.9mph /  1.4km/h 4mph /  6.4km/h 70% 0in /  0.0mm 431 W/m2
13:54 69.8 °F /  21 °C 58.8 °F /  14.9 °C 30.1in /  1020.7hPa NE 2.9mph /  4.7km/h 3mph /  4.8km/h 68% 0in /  0.0mm 480 W/m2
13:59 70.2 °F /  21.2 °C 58.6 °F /  14.8 °C 30.1in /  1020.7hPa East 0.9mph /  1.4km/h 8mph /  12.9km/h 67% 0in /  0.0mm 462 W/m2
14:04 70.2 °F /  21.2 °C 58.3 °F /  14.6 °C 30.1in /  1020.7hPa NNW 9mph /  14.5km/h 9mph /  14.5km/h 66% 0in /  0.0mm 464 W/m2
14:09 70.2 °F /  21.2 °C 57.9 °F /  14.4 °C 30.1in /  1020.7hPa North 2.9mph /  4.7km/h 9mph /  14.5km/h 65% 0in /  0.0mm 497 W/m2
14:14 70.3 °F /  21.3 °C 57.6 °F /  14.2 °C 30.1in /  1020.7hPa NE 4mph /  6.4km/h 5mph /  8km/h 64% 0in /  0.0mm 459 W/m2
14:19 70.3 °F /  21.3 °C 58.5 °F /  14.7 °C 30.1in /  1020.7hPa NW 2mph /  3.2km/h 9mph /  14.5km/h 66% 0in /  0.0mm 431 W/m2
14:24 70.5 °F /  21.4 °C 58.6 °F /  14.8 °C 30.1in /  1020.7hPa NNE 4mph /  6.4km/h 6mph /  9.7km/h 66% 0in /  0.0mm 457 W/m2
14:29 70.7 °F /  21.5 °C 57.9 °F /  14.4 °C 30.1in /  1020.7hPa North 2mph /  3.2km/h 5mph /  8km/h 64% 0in /  0.0mm 452 W/m2
14:34 70.9 °F /  21.6 °C 57.7 °F /  14.3 °C 30.1in /  1020.7hPa ENE 4mph /  6.4km/h 5mph /  8km/h 63% 0in /  0.0mm 455 W/m2
14:39 71.1 °F /  21.7 °C 59.2 °F /  15.1 °C 30.1in /  1020.7hPa NNE 2mph /  3.2km/h 9mph /  14.5km/h 66% 0in /  0.0mm 446 W/m2
14:44 70.9 °F /  21.6 °C 59 °F /  15 °C 30.1in /  1020.7hPa West 2mph /  3.2km/h 8mph /  12.9km/h 66% 0in /  0.0mm 369 W/m2
14:49 70.9 °F /  21.6 °C 59 °F /  15 °C 30.1in /  1020.7hPa North 2mph /  3.2km/h 9mph /  14.5km/h 66% 0in /  0.0mm 369 W/m2
14:54 70.7 °F /  21.5 °C 58.8 °F /  14.9 °C 30.1in /  1020.7hPa WNW 2mph /  3.2km/h 4mph /  6.4km/h 66% 0in /  0.0mm 387 W/m2
14:59 70.5 °F /  21.4 °C 58.6 °F /  14.8 °C 30.1in /  1020.7hPa WNW 2mph /  3.2km/h 4mph /  6.4km/h 66% 0in /  0.0mm 422 W/m2
15:04 70.5 °F /  21.4 °C 59 °F /  15 °C 30.1in /  1020.7hPa WNW 2mph /  3.2km/h 5mph /  8km/h 67% 0in /  0.0mm 431 W/m2
15:09 70.5 °F /  21.4 °C 58.6 °F /  14.8 °C 30.1in /  1020.7hPa Calm   5mph /  8km/h 66% 0in /  0.0mm 401 W/m2
15:14 70.9 °F /  21.6 °C 59 °F /  15 °C 30.1in /  1020.7hPa West 2mph /  3.2km/h 5mph /  8km/h 66% 0in /  0.0mm 403 W/m2
15:19 70.9 °F /  21.6 °C 59 °F /  15 °C 30.1in /  1020.7hPa NE 2.9mph /  4.7km/h 3mph /  4.8km/h 66% 0in /  0.0mm 396 W/m2
15:25 71.1 °F /  21.7 °C 59.2 °F /  15.1 °C 30.1in /  1020.3hPa NW 2mph /  3.2km/h 5mph /  8km/h 66% 0in /  0.0mm 387 W/m2
15:30 70.9 °F /  21.6 °C 59 °F /  15 °C 30.1in /  1020.3hPa NW 2mph /  3.2km/h 6mph /  9.7km/h 66% 0in /  0.0mm 381 W/m2
15:35 70.5 °F /  21.4 °C 58.6 °F /  14.8 °C 30.1in /  1020.3hPa West 2.9mph /  4.7km/h 6mph /  9.7km/h 66% 0in /  0.0mm 360 W/m2
15:40 70.5 °F /  21.4 °C 59 °F /  15 °C 30.1in /  1020.7hPa NNW 0.9mph /  1.4km/h 4mph /  6.4km/h 67% 0in /  0.0mm 304 W/m2
15:45 70.7 °F /  21.5 °C 58.8 °F /  14.9 °C 30.1in /  1020.7hPa West 2mph /  3.2km/h 6mph /  9.7km/h 66% 0in /  0.0mm 279 W/m2
15:50 70.3 °F /  21.3 °C 58.5 °F /  14.7 °C 30.1in /  1020.7hPa WNW 2.9mph /  4.7km/h 4mph /  6.4km/h 66% 0in /  0.0mm 264 W/m2
15:55 70.3 °F /  21.3 °C 58.8 °F /  14.9 °C 30.1in /  1020.3hPa WNW 0.9mph /  1.4km/h 3mph /  4.8km/h 67% 0in /  0.0mm 255 W/m2
16:00 70.3 °F /  21.3 °C 58.5 °F /  14.7 °C 30.1in /  1020.3hPa NNW 2mph /  3.2km/h 6mph /  9.7km/h 66% 0in /  0.0mm 250 W/m2
16:05 70.2 °F /  21.2 °C 58.6 °F /  14.8 °C 30.1in /  1020.3hPa Calm   3mph /  4.8km/h 67% 0in /  0.0mm 250 W/m2
16:10 70.3 °F /  21.3 °C 58.5 °F /  14.7 °C 30.1in /  1020.3hPa Calm   3mph /  4.8km/h 66% 0in /  0.0mm 251 W/m2
16:15 70.5 °F /  21.4 °C 59.4 °F /  15.2 °C 30.1in /  1020.3hPa ENE 2mph /  3.2km/h 3mph /  4.8km/h 68% 0in /  0.0mm 251 W/m2
16:20 70.7 °F /  21.5 °C 58.3 °F /  14.6 °C 30.1in /  1020.3hPa NW 0.9mph /  1.4km/h 8mph /  12.9km/h 65% 0in /  0.0mm 255 W/m2
16:25 70.7 °F /  21.5 °C 58.8 °F /  14.9 °C 30.1in /  1020.3hPa Calm   4mph /  6.4km/h 66% 0in /  0.0mm 260 W/m2
16:30 70.7 °F /  21.5 °C 58.8 °F /  14.9 °C 30.1in /  1020.3hPa WNW 2mph /  3.2km/h 8mph /  12.9km/h 66% 0in /  0.0mm 255 W/m2
16:35 70.5 °F /  21.4 °C 58.1 °F /  14.5 °C 30.1in /  1020.3hPa NNW 4mph /  6.4km/h 6mph /  9.7km/h 65% 0in /  0.0mm 241 W/m2
16:40 70.5 °F /  21.4 °C 58.1 °F /  14.5 °C 30.1in /  1020.3hPa ENE 2mph /  3.2km/h 4mph /  6.4km/h 65% 0in /  0.0mm 248 W/m2
16:45 70.7 °F /  21.5 °C 58.8 °F /  14.9 °C 30.1in /  1020.0hPa Calm   1mph /  1.6km/h 66% 0in /  0.0mm 260 W/m2
16:50 70.9 °F /  21.6 °C 58.5 °F /  14.7 °C 30.1in /  1020.0hPa West 0.9mph /  1.4km/h 7mph /  11.3km/h 65% 0in /  0.0mm 241 W/m2
16:55 70.7 °F /  21.5 °C 58.3 °F /  14.6 °C 30.1in /  1020.0hPa WNW 2mph /  3.2km/h 3mph /  4.8km/h 65% 0in /  0.0mm 236 W/m2
17:00 70.5 °F /  21.4 °C 58.1 °F /  14.5 °C 30.1in /  1020.0hPa North 2mph /  3.2km/h 4mph /  6.4km/h 65% 0in /  0.0mm 234 W/m2
17:05 70.5 °F /  21.4 °C 58.1 °F /  14.5 °C 30.1in /  1020.0hPa NNW 2mph /  3.2km/h 3mph /  4.8km/h 65% 0in /  0.0mm 234 W/m2
17:10 70.5 °F /  21.4 °C 58.1 °F /  14.5 °C 30.1in /  1020.0hPa ENE 4mph /  6.4km/h 4mph /  6.4km/h 65% 0in /  0.0mm 206 W/m2
17:15 70.5 °F /  21.4 °C 58.1 °F /  14.5 °C 30.1in /  1020.0hPa WNW 0.9mph /  1.4km/h 3mph /  4.8km/h 65% 0in /  0.0mm 200 W/m2
17:20 70.5 °F /  21.4 °C 58.6 °F /  14.8 °C 30.1in /  1020.0hPa WNW 2mph /  3.2km/h 4mph /  6.4km/h 66% 0in /  0.0mm 186 W/m2
17:25 70.5 °F /  21.4 °C 58.6 °F /  14.8 °C 30.1in /  1020.0hPa NNW 2mph /  3.2km/h 4mph /  6.4km/h 66% 0in /  0.0mm 172 W/m2
17:30 70.5 °F /  21.4 °C 58.1 °F /  14.5 °C 30.1in /  1020.0hPa NE 0.9mph /  1.4km/h 4mph /  6.4km/h 65% 0in /  0.0mm 176 W/m2
17:35 70.5 °F /  21.4 °C 58.1 °F /  14.5 °C 30.1in /  1020.0hPa East 0.9mph /  1.4km/h 2mph /  3.2km/h 65% 0in /  0.0mm 167 W/m2
17:40 70.5 °F /  21.4 °C 58.1 °F /  14.5 °C 30.1in /  1020.0hPa WSW 2mph /  3.2km/h 7mph /  11.3km/h 65% 0in /  0.0mm 156 W/m2
17:45 70.3 °F /  21.3 °C 58.5 °F /  14.7 °C 30.1in /  1020.0hPa West 2mph /  3.2km/h 4mph /  6.4km/h 66% 0in /  0.0mm 155 W/m2
17:50 70.3 °F /  21.3 °C 58.8 °F /  14.9 °C 30.1in /  1020.0hPa West 2mph /  3.2km/h 7mph /  11.3km/h 67% 0in /  0.0mm 142 W/m2
17:55 70.2 °F /  21.2 °C 58.6 °F /  14.8 °C 30.1in /  1019.6hPa North 0.9mph /  1.4km/h 4mph /  6.4km/h 67% 0in /  0.0mm 132 W/m2
18:00 70.3 °F /  21.3 °C 58.8 °F /  14.9 °C 30.1in /  1019.6hPa NNE 2mph /  3.2km/h 4mph /  6.4km/h 67% 0in /  0.0mm 118 W/m2
18:05 70.3 °F /  21.3 °C 58.5 °F /  14.7 °C 30.1in /  1019.6hPa West 2mph /  3.2km/h 3mph /  4.8km/h 66% 0in /  0.0mm 107 W/m2
18:10 70.2 °F /  21.2 °C 58.3 °F /  14.6 °C 30.1in /  1019.6hPa NNE 2mph /  3.2km/h 4mph /  6.4km/h 66% 0in /  0.0mm 111 W/m2
18:15 70.2 °F /  21.2 °C 58.6 °F /  14.8 °C 30.1in /  1019.6hPa West 2mph /  3.2km/h 4mph /  6.4km/h 67% 0in /  0.0mm 118 W/m2
18:20 70.2 °F /  21.2 °C 59.2 °F /  15.1 °C 30.1in /  1019.6hPa NNW 2.9mph /  4.7km/h 3mph /  4.8km/h 68% 0in /  0.0mm 123 W/m2
18:25 70.2 °F /  21.2 °C 59.2 °F /  15.1 °C 30.1in /  1019.6hPa NNW 0.9mph /  1.4km/h 4mph /  6.4km/h 68% 0in /  0.0mm 118 W/m2
18:30 70.2 °F /  21.2 °C 59.2 °F /  15.1 °C 30.1in /  1019.6hPa East 2.9mph /  4.7km/h 4mph /  6.4km/h 68% 0in /  0.0mm 104 W/m2
18:35 70.2 °F /  21.2 °C 59.2 °F /  15.1 °C 30.1in /  1019.6hPa ENE 0.9mph /  1.4km/h 5mph /  8km/h 68% 0in /  0.0mm 118 W/m2
18:40 70.2 °F /  21.2 °C 59.2 °F /  15.1 °C 30.1in /  1019.6hPa Calm   2mph /  3.2km/h 68% 0in /  0.0mm 123 W/m2
18:45 70.2 °F /  21.2 °C 59.5 °F /  15.3 °C 30.1in /  1019.6hPa Calm   1mph /  1.6km/h 69% 0in /  0.0mm 114 W/m2
18:50 70 °F /  21.1 °C 59 °F /  15 °C 30.1in /  1019.6hPa ENE 2.9mph /  4.7km/h 4mph /  6.4km/h 68% 0in /  0.0mm 111 W/m2
18:55 69.8 °F /  21 °C 58.8 °F /  14.9 °C 30.1in /  1019.6hPa NE 0.9mph /  1.4km/h 3mph /  4.8km/h 68% 0in /  0.0mm 100 W/m2
19:00 69.6 °F /  20.9 °C 59 °F /  15 °C 30.1in /  1019.6hPa North 2.9mph /  4.7km/h 3mph /  4.8km/h 69% 0in /  0.0mm 86 W/m2
19:05 69.6 °F /  20.9 °C 59 °F /  15 °C 30.1in /  1019.6hPa Calm   3mph /  4.8km/h 69% 0in /  0.0mm 83 W/m2
19:10 69.6 °F /  20.9 °C 59 °F /  15 °C 30.1in /  1019.6hPa NNE 0.9mph /  1.4km/h 2mph /  3.2km/h 69% 0in /  0.0mm 72 W/m2
19:15 69.4 °F /  20.8 °C 58.8 °F /  14.9 °C 30.1in /  1019.6hPa Calm   2mph /  3.2km/h 69% 0in /  0.0mm 63 W/m2
19:20 69.4 °F /  20.8 °C 59.2 °F /  15.1 °C 30.1in /  1019.6hPa Calm   1mph /  1.6km/h 70% 0in /  0.0mm 54 W/m2
19:25 69.4 °F /  20.8 °C 59.2 °F /  15.1 °C 30.1in /  1020.0hPa Calm   2mph /  3.2km/h 70% 0in /  0.0mm 46 W/m2
19:30 69.3 °F /  20.7 °C 59 °F /  15 °C 30.1in /  1020.0hPa ENE 0.9mph /  1.4km/h 2mph /  3.2km/h 70% 0in /  0.0mm 47 W/m2
19:35 69.3 °F /  20.7 °C 59 °F /  15 °C 30.1in /  1020.0hPa NE 0.9mph /  1.4km/h 2mph /  3.2km/h 70% 0in /  0.0mm 49 W/m2
19:40 69.3 °F /  20.7 °C 59 °F /  15 °C 30.1in /  1020.0hPa East 2mph /  3.2km/h 3mph /  4.8km/h 70% 0in /  0.0mm 39 W/m2
19:45 69.1 °F /  20.6 °C 59.4 °F /  15.2 °C 30.1in /  1020.0hPa Calm   1mph /  1.6km/h 71% 0in /  0.0mm 39 W/m2
19:50 69.1 °F /  20.6 °C 58.8 °F /  14.9 °C 30.1in /  1020.0hPa NNE 0.9mph /  1.4km/h 2mph /  3.2km/h 70% 0in /  0.0mm 46 W/m2
19:55 69.1 °F /  20.6 °C 59.4 °F /  15.2 °C 30.1in /  1020.0hPa Calm   1mph /  1.6km/h 71% 0in /  0.0mm 42 W/m2
20:00 68.9 °F /  20.5 °C 59.2 °F /  15.1 °C 30.1in /  1020.0hPa ENE 4mph /  6.4km/h 4mph /  6.4km/h 71% 0in /  0.0mm 35 W/m2
20:05 68.7 °F /  20.4 °C 59 °F /  15 °C 30.1in /  1020.0hPa Calm   1mph /  1.6km/h 71% 0in /  0.0mm 26 W/m2
20:10 68.5 °F /  20.3 °C 58.8 °F /  14.9 °C 30.1in /  1020.0hPa East 0.9mph /  1.4km/h 2mph /  3.2km/h 71% 0in /  0.0mm 19 W/m2
20:15 68.5 °F /  20.3 °C 58.8 °F /  14.9 °C 30.1in /  1020.0hPa ESE 0.9mph /  1.4km/h 2mph /  3.2km/h 71% 0in /  0.0mm 18 W/m2
20:20 68.4 °F /  20.2 °C 59 °F /  15 °C 30.1in /  1020.0hPa ESE 0.9mph /  1.4km/h 3mph /  4.8km/h 72% 0in /  0.0mm 14 W/m2
20:25 68.2 °F /  20.1 °C 58.8 °F /  14.9 °C 30.1in /  1020.0hPa NNE 2mph /  3.2km/h 2mph /  3.2km/h 72% 0in /  0.0mm 14 W/m2
20:30 68 °F /  20 °C 58.6 °F /  14.8 °C 30.1in /  1020.0hPa Calm   3mph /  4.8km/h 72% 0in /  0.0mm 11 W/m2
20:35 67.8 °F /  19.9 °C 58.8 °F /  14.9 °C 30.1in /  1020.0hPa NE 0.9mph /  1.4km/h 1mph /  1.6km/h 73% 0in /  0.0mm 9 W/m2
20:40 67.8 °F /  19.9 °C 58.8 °F /  14.9 °C 30.1in /  1020.0hPa Calm   3mph /  4.8km/h 73% 0in /  0.0mm 7 W/m2
20:45 67.6 °F /  19.8 °C 58.6 °F /  14.8 °C 30.1in /  1020.0hPa NE 0.9mph /  1.4km/h 3mph /  4.8km/h 73% 0in /  0.0mm 5 W/m2
20:50 67.6 °F /  19.8 °C 58.3 °F /  14.6 °C 30.1in /  1020.0hPa North 0.9mph /  1.4km/h 4mph /  6.4km/h 72% 0in /  0.0mm 5 W/m2
20:55 67.5 °F /  19.7 °C 58.5 °F /  14.7 °C 30.1in /  1020.3hPa East 0.9mph /  1.4km/h 3mph /  4.8km/h 73% 0in /  0.0mm 5 W/m2
21:00 67.3 °F /  19.6 °C 58.3 °F /  14.6 °C 30.1in /  1020.3hPa Calm     73% 0in /  0.0mm 5 W/m2
21:05 67.3 °F /  19.6 °C 58.6 °F /  14.8 °C 30.1in /  1020.3hPa Calm   1mph /  1.6km/h 74% 0in /  0.0mm 7 W/m2
21:10 67.1 °F /  19.5 °C 58.1 °F /  14.5 °C 30.1in /  1020.3hPa Calm   2mph /  3.2km/h 73% 0in /  0.0mm 9 W/m2
21:15 66.9 °F /  19.4 °C 58.3 °F /  14.6 °C 30.1in /  1020.3hPa Calm   2mph /  3.2km/h 74% 0in /  0.0mm 9 W/m2
21:20 66.9 °F /  19.4 °C 58.3 °F /  14.6 °C 30.1in /  1020.7hPa NE 2mph /  3.2km/h 3mph /  4.8km/h 74% 0in /  0.0mm 5 W/m2
21:25 66.9 °F /  19.4 °C 58.3 °F /  14.6 °C 30.1in /  1020.7hPa NE 0.9mph /  1.4km/h 1mph /  1.6km/h 74% 0in /  0.0mm 5 W/m2
21:30 66.9 °F /  19.4 °C 58.3 °F /  14.6 °C 30.1in /  1020.7hPa Calm     74% 0in /  0.0mm 0 W/m2
21:35 66.9 °F /  19.4 °C 58.3 °F /  14.6 °C 30.1in /  1020.7hPa NNW 2mph /  3.2km/h 2mph /  3.2km/h 74% 0in /  0.0mm 0 W/m2
21:40 66.7 °F /  19.3 °C 58.6 °F /  14.8 °C 30.1in /  1020.7hPa North 0.9mph /  1.4km/h 3mph /  4.8km/h 75% 0in /  0.0mm 0 W/m2
21:45 66.7 °F /  19.3 °C 58.6 °F /  14.8 °C 30.1in /  1020.7hPa Calm   3mph /  4.8km/h 75% 0in /  0.0mm 0 W/m2
21:50 66.7 °F /  19.3 °C 59 °F /  15 °C 30.1in /  1020.7hPa ENE 0.9mph /  1.4km/h 2mph /  3.2km/h 76% 0in /  0.0mm 0 W/m2
21:55 66.6 °F /  19.2 °C 58.8 °F /  14.9 °C 30.2in /  1021.0hPa ENE 0.9mph /  1.4km/h 1mph /  1.6km/h 76% 0in /  0.0mm 0 W/m2
22:00 66.6 °F /  19.2 °C 59.2 °F /  15.1 °C 30.2in /  1021.0hPa NNE 0.9mph /  1.4km/h 2mph /  3.2km/h 77% 0in /  0.0mm 0 W/m2
22:05 66.4 °F /  19.1 °C 59 °F /  15 °C 30.2in /  1021.0hPa Calm   3mph /  4.8km/h 77% 0in /  0.0mm 0 W/m2
22:10 66.2 °F /  19 °C 58.8 °F /  14.9 °C 30.2in /  1021.0hPa North 0.9mph /  1.4km/h 3mph /  4.8km/h 77% 0in /  0.0mm 0 W/m2
22:15 66 °F /  18.9 °C 59 °F /  15 °C 30.2in /  1021.0hPa NE 0.9mph /  1.4km/h 4mph /  6.4km/h 78% 0in /  0.0mm 0 W/m2
22:20 65.8 °F /  18.8 °C 58.8 °F /  14.9 °C 30.2in /  1021.0hPa Calm   3mph /  4.8km/h 78% 0in /  0.0mm 0 W/m2
22:25 65.8 °F /  18.8 °C 58.8 °F /  14.9 °C 30.2in /  1021.0hPa Calm   2mph /  3.2km/h 78% 0in /  0.0mm 0 W/m2
22:30 65.8 °F /  18.8 °C 58.8 °F /  14.9 °C 30.2in /  1021.3hPa Calm   1mph /  1.6km/h 78% 0in /  0.0mm 0 W/m2
22:35 65.7 °F /  18.7 °C 58.6 °F /  14.8 °C 30.2in /  1021.0hPa East 0.9mph /  1.4km/h 2mph /  3.2km/h 78% 0in /  0.0mm 0 W/m2
22:40 65.7 °F /  18.7 °C 58.6 °F /  14.8 °C 30.2in /  1021.3hPa Calm   1mph /  1.6km/h 78% 0in /  0.0mm 0 W/m2
22:45 65.7 °F /  18.7 °C 58.6 °F /  14.8 °C 30.2in /  1021.3hPa ESE 0.9mph /  1.4km/h 3mph /  4.8km/h 78% 0in /  0.0mm 0 W/m2
22:50 65.5 °F /  18.6 °C 58.5 °F /  14.7 °C 30.2in /  1021.0hPa NNE 0.9mph /  1.4km/h 3mph /  4.8km/h 78% 0in /  0.0mm 0 W/m2
22:55 65.3 °F /  18.5 °C 58.6 °F /  14.8 °C 30.2in /  1021.0hPa Calm   1mph /  1.6km/h 79% 0in /  0.0mm 0 W/m2
23:00 65.3 °F /  18.5 °C 58.6 °F /  14.8 °C 30.2in /  1021.0hPa East 0.9mph /  1.4km/h 1mph /  1.6km/h 79% 0in /  0.0mm 0 W/m2
23:05 65.1 °F /  18.4 °C 58.5 °F /  14.7 °C 30.2in /  1021.0hPa East 2mph /  3.2km/h 2mph /  3.2km/h 79% 0in /  0.0mm 0 W/m2
23:10 65.1 °F /  18.4 °C 58.5 °F /  14.7 °C 30.2in /  1021.0hPa Calm     79% 0in /  0.0mm 0 W/m2
23:15 64.9 °F /  18.3 °C 58.3 °F /  14.6 °C 30.2in /  1021.0hPa SSW 0.9mph /  1.4km/h 3mph /  4.8km/h 79% 0in /  0.0mm 0 W/m2
23:20 64.9 °F /  18.3 °C 58.3 °F /  14.6 °C 30.2in /  1021.0hPa NW 0.9mph /  1.4km/h 2mph /  3.2km/h 79% 0in /  0.0mm 0 W/m2
23:25 64.8 °F /  18.2 °C 58.1 °F /  14.5 °C 30.2in /  1021.0hPa Calm   3mph /  4.8km/h 79% 0in /  0.0mm 0 W/m2
23:31 64.8 °F /  18.2 °C 58.5 °F /  14.7 °C 30.2in /  1021.0hPa ENE 0.9mph /  1.4km/h 3mph /  4.8km/h 80% 0in /  0.0mm 0 W/m2
23:36 64.8 °F /  18.2 °C 58.5 °F /  14.7 °C 30.2in /  1021.0hPa NE 2mph /  3.2km/h 3mph /  4.8km/h 80% 0in /  0.0mm 0 W/m2
23:41 64.6 °F /  18.1 °C 58.6 °F /  14.8 °C 30.2in /  1021.0hPa Calm   2mph /  3.2km/h 81% 0in /  0.0mm 0 W/m2
23:46 64.6 °F /  18.1 °C 58.6 °F /  14.8 °C 30.2in /  1021.0hPa NE 0.9mph /  1.4km/h 2mph /  3.2km/h 81% 0in /  0.0mm 0 W/m2
23:51 64.4 °F /  18 °C 58.8 °F /  14.9 °C 30.2in /  1021.0hPa Calm   3mph /  4.8km/h 82% 0in /  0.0mm 0 W/m2
23:56 64.4 °F /  18 °C 58.8 °F /  14.9 °C 30.2in /  1021.0hPa Calm   2mph /  3.2km/h 82% 0in /  0.0mm 0 W/m2
Juneau County Weather
Compliments of Weather Underground - 4 mb